createdAt,value
2019-06-20T00:00:13.637Z,100218.45
2019-06-20T00:02:46.445Z,100227.78
2019-06-20T00:05:18.829Z,100214.42
2019-06-20T00:07:50.134Z,100210.80
2019-06-20T00:10:21.793Z,100210.05
2019-06-20T00:13:00.343Z,100205.73
2019-06-20T00:15:26.263Z,100201.52
2019-06-20T00:17:57.728Z,100247.05
2019-06-20T00:20:29.060Z,100265.28
2019-06-20T00:23:00.438Z,100284.77
2019-06-20T00:25:32.314Z,100307.41
2019-06-20T00:28:03.714Z,100291.37
2019-06-20T00:30:35.157Z,100323.53
2019-06-20T00:33:06.430Z,100315.23
2019-06-20T00:35:37.801Z,100307.13
2019-06-20T00:38:09.058Z,100312.20
2019-06-20T00:40:40.453Z,100321.39
2019-06-20T00:43:17.333Z,100322.76
2019-06-20T00:45:44.851Z,100322.51
2019-06-20T00:48:16.302Z,100326.55
2019-06-20T00:50:47.716Z,100321.98
2019-06-20T00:53:19.031Z,100320.42
2019-06-20T00:55:50.394Z,100325.27
2019-06-20T00:58:21.707Z,100322.12
2019-06-20T01:00:53.200Z,100328.67
2019-06-20T01:03:24.605Z,100327.23
2019-06-20T01:05:55.999Z,100332.95
2019-06-20T01:08:27.339Z,100339.76
2019-06-20T01:10:58.645Z,100332.09
2019-06-20T01:13:33.990Z,100323.80
2019-06-20T01:16:03.204Z,100332.00
2019-06-20T01:18:35.598Z,100326.72
2019-06-20T01:21:07.874Z,100328.99
2019-06-20T01:23:39.265Z,100315.78
2019-06-20T01:26:10.500Z,100309.66
2019-06-20T01:28:41.837Z,100334.83
2019-06-20T01:31:13.331Z,100316.02
2019-06-20T01:33:44.589Z,100327.08
2019-06-20T01:36:16.008Z,100321.59
2019-06-20T01:38:47.386Z,100332.19
2019-06-20T01:41:18.730Z,100321.19
2019-06-20T01:43:51.199Z,100315.06
2019-06-20T01:46:22.637Z,100326.59
2019-06-20T01:48:54.157Z,100334.46
2019-06-20T01:51:25.500Z,100345.00
2019-06-20T01:53:57.068Z,100341.29
2019-06-20T01:56:28.413Z,100327.17
2019-06-20T01:58:59.723Z,100321.52
2019-06-20T02:01:31.152Z,100333.36
2019-06-20T02:04:02.468Z,100325.44
2019-06-20T02:06:33.811Z,100339.35
2019-06-20T02:09:08.434Z,100333.16
2019-06-20T02:11:39.873Z,100342.69
2019-06-20T02:14:11.406Z,100342.42
2019-06-20T02:16:42.779Z,100342.14
2019-06-20T02:19:14.277Z,100344.34
2019-06-20T02:21:45.762Z,100337.08
2019-06-20T02:24:17.153Z,100342.97
2019-06-20T02:26:48.619Z,100329.73
2019-06-20T02:29:20.119Z,100333.00
2019-06-20T02:31:51.602Z,100334.83
2019-06-20T02:34:22.977Z,100341.42
2019-06-20T02:36:54.363Z,100337.98
2019-06-20T02:39:25.725Z,100351.48
2019-06-20T02:41:57.142Z,100341.77
2019-06-20T02:44:30.635Z,100348.96
2019-06-20T02:47:02.836Z,100356.25
2019-06-20T02:49:34.027Z,100365.52
2019-06-20T02:52:05.357Z,100367.28
2019-06-20T02:54:36.638Z,100370.43
2019-06-20T02:57:08.162Z,100366.88
2019-06-20T02:59:39.621Z,100370.59
2019-06-20T03:02:12.467Z,100399.49
2019-06-20T03:04:45.777Z,100381.75
2019-06-20T03:07:16.886Z,100377.34
2019-06-20T03:09:48.198Z,100395.69
2019-06-20T03:12:19.555Z,100395.74
2019-06-20T03:14:51.056Z,100424.23
2019-06-20T03:17:22.382Z,100439.81
2019-06-20T03:19:53.744Z,100461.14
2019-06-20T03:22:24.992Z,100466.77
2019-06-20T03:24:56.386Z,100483.20
2019-06-20T03:27:27.629Z,100494.78
2019-06-20T03:29:59.061Z,100529.41
2019-06-20T03:32:30.440Z,100519.11
2019-06-20T03:35:01.937Z,100546.66
2019-06-20T03:37:33.387Z,100560.48
2019-06-20T03:40:09.639Z,100583.57
2019-06-20T03:42:41.080Z,100572.34
2019-06-20T03:45:12.599Z,100590.50
2019-06-20T03:47:43.937Z,100582.09
2019-06-20T03:50:15.584Z,100598.64
2019-06-20T03:52:48.629Z,100607.95
2019-06-20T03:55:20.062Z,100615.92
2019-06-20T03:57:51.399Z,100627.77
2019-06-20T04:00:25.951Z,100645.45
2019-06-20T04:02:57.357Z,100634.65
2019-06-20T04:05:28.686Z,100639.80
2019-06-20T04:07:59.924Z,100626.48
2019-06-20T04:10:31.252Z,100616.62
2019-06-20T04:13:02.655Z,100611.62
2019-06-20T04:15:34.137Z,100616.55
2019-06-20T04:18:05.400Z,100613.52
2019-06-20T04:20:36.707Z,100625.45
2019-06-20T04:23:07.968Z,100630.80
2019-06-20T04:25:39.202Z,100623.30
2019-06-20T04:28:10.475Z,100618.71
2019-06-20T04:30:41.904Z,100628.95
2019-06-20T04:33:13.246Z,100622.27
2019-06-20T04:35:44.659Z,100628.42
2019-06-20T04:38:16.062Z,100626.63
2019-06-20T04:40:47.371Z,100614.50
2019-06-20T04:43:18.643Z,100629.16
2019-06-20T04:45:54.326Z,100612.12
2019-06-20T04:48:25.736Z,100615.88
2019-06-20T04:50:57.003Z,100626.45
2019-06-20T04:53:28.457Z,100624.94
2019-06-20T04:55:59.813Z,100618.50
2019-06-20T04:58:31.175Z,100619.53
2019-06-20T05:01:02.549Z,100626.41
2019-06-20T05:03:33.951Z,100616.91
2019-06-20T05:06:05.336Z,100617.57
2019-06-20T05:08:36.686Z,100613.94
2019-06-20T05:11:07.999Z,100617.02
2019-06-20T05:13:40.159Z,100611.30
2019-06-20T05:16:11.734Z,100623.28
2019-06-20T05:18:43.003Z,100612.60
2019-06-20T05:21:14.304Z,100624.13
2019-06-20T05:23:46.638Z,100618.77
2019-06-20T05:26:17.945Z,100621.36
2019-06-20T05:28:49.289Z,100624.46
2019-06-20T05:31:20.525Z,100625.11
2019-06-20T05:33:51.889Z,100638.73
2019-06-20T05:36:23.328Z,100632.45
2019-06-20T05:38:54.602Z,100643.39
2019-06-20T05:41:25.956Z,100623.84
2019-06-20T05:43:57.312Z,100623.56
2019-06-20T05:46:29.589Z,100631.70
2019-06-20T05:49:01.121Z,100632.63
2019-06-20T05:51:32.438Z,100630.17
2019-06-20T05:54:05.083Z,100640.48
2019-06-20T05:56:36.407Z,100637.04
2019-06-20T05:59:08.250Z,100637.92
2019-06-20T06:01:39.678Z,100626.58
2019-06-20T06:04:10.946Z,100634.27
2019-06-20T06:06:42.960Z,100629.48
2019-06-20T06:09:14.421Z,100627.64
2019-06-20T06:11:45.680Z,100638.78
2019-06-20T06:14:17.157Z,100641.55
2019-06-20T06:16:48.575Z,100647.03
2019-06-20T06:19:20.094Z,100644.37
2019-06-20T06:21:51.392Z,100646.59
2019-06-20T06:24:22.878Z,100646.09
2019-06-20T06:26:54.199Z,100651.28
2019-06-20T06:29:25.434Z,100644.77
2019-06-20T06:31:56.863Z,100656.12
2019-06-20T06:34:28.242Z,100636.42
2019-06-20T06:36:59.529Z,100653.16
2019-06-20T06:39:31.908Z,100641.40
2019-06-20T06:42:03.230Z,100627.03
2019-06-20T06:44:34.550Z,100624.05
2019-06-20T06:47:06.063Z,100613.97
2019-06-20T06:49:37.314Z,100615.42
2019-06-20T06:52:08.689Z,100616.84
2019-06-20T06:54:39.925Z,100637.11
2019-06-20T06:57:11.269Z,100618.98
2019-06-20T06:59:42.525Z,100622.28
2019-06-20T07:02:13.982Z,100612.23
2019-06-20T07:04:45.302Z,100630.48
2019-06-20T07:07:16.697Z,100654.05
2019-06-20T07:09:49.070Z,100647.25
2019-06-20T07:12:20.456Z,100646.47
2019-06-20T07:14:51.826Z,100657.28
2019-06-20T07:17:23.218Z,100655.59
2019-06-20T07:19:54.478Z,100659.68
2019-06-20T07:22:25.728Z,100655.51
2019-06-20T07:24:56.973Z,100668.00
2019-06-20T07:27:28.400Z,100664.63
2019-06-20T07:30:17.538Z,100638.57
2019-06-20T07:32:48.991Z,100649.83
2019-06-20T07:35:21.186Z,100641.27
2019-06-20T07:37:52.500Z,100629.56
2019-06-20T07:40:24.416Z,100620.55
2019-06-20T07:42:55.751Z,100625.89
2019-06-20T07:45:27.972Z,100626.52
2019-06-20T07:47:59.497Z,100617.98
2019-06-20T07:50:30.938Z,100634.33
2019-06-20T07:53:04.321Z,100629.54
2019-06-20T07:55:35.903Z,100651.13
2019-06-20T07:58:07.344Z,100647.11
2019-06-20T08:00:40.101Z,100663.69
2019-06-20T08:03:11.549Z,100643.98
2019-06-20T08:05:43.068Z,100666.58
2019-06-20T08:08:14.685Z,100637.95
2019-06-20T08:10:47.166Z,100632.33
2019-06-20T08:13:18.587Z,100632.17
2019-06-20T08:15:50.075Z,100637.52
2019-06-20T08:18:21.539Z,100609.53
2019-06-20T08:20:53.271Z,100587.44
2019-06-20T08:23:25.059Z,100596.98
2019-06-20T08:25:57.528Z,100602.05
2019-06-20T08:28:29.657Z,100619.44
2019-06-20T08:31:02.482Z,100631.25
2019-06-20T08:33:35.292Z,100629.22
2019-06-20T08:36:06.848Z,100628.34
2019-06-20T08:38:38.659Z,100616.95
2019-06-20T08:41:10.291Z,100613.77
2019-06-20T08:43:42.023Z,100605.03
2019-06-20T08:46:13.601Z,100627.77
2019-06-20T08:48:45.210Z,100612.28
2019-06-20T08:51:17.389Z,100601.01
2019-06-20T08:53:49.304Z,100597.88
2019-06-20T08:56:20.763Z,100584.14
2019-06-20T08:58:52.253Z,100557.27
2019-06-20T09:01:25.467Z,100556.48
2019-06-20T09:03:58.281Z,100560.53
2019-06-20T09:06:30.117Z,100573.80
2019-06-20T09:09:07.792Z,100607.78
2019-06-20T09:11:39.636Z,100588.95
2019-06-20T09:14:11.350Z,100594.84
2019-06-20T09:16:44.217Z,100577.79
2019-06-20T09:19:16.551Z,100585.97
2019-06-20T09:21:48.381Z,100551.52
2019-06-20T09:24:19.785Z,100538.55
2019-06-20T09:26:52.349Z,100520.34
2019-06-20T09:29:24.271Z,100518.06
2019-06-20T09:31:55.742Z,100517.38
2019-06-20T09:34:27.285Z,100495.23
2019-06-20T09:36:59.427Z,100507.59
2019-06-20T09:39:30.975Z,100505.23
2019-06-20T09:42:03.417Z,100496.31
2019-06-20T09:44:36.160Z,100499.81
2019-06-20T09:47:07.721Z,100498.23
2019-06-20T09:49:39.043Z,100523.36
2019-06-20T09:52:10.785Z,100526.09
2019-06-20T09:54:43.390Z,100582.22
2019-06-20T09:57:14.765Z,100540.07
2019-06-20T09:59:59.097Z,100559.31
2019-06-20T10:02:19.440Z,100538.25
2019-06-20T10:04:52.331Z,100543.44
2019-06-20T10:07:24.082Z,100544.47
2019-06-20T10:09:56.310Z,100521.06
2019-06-20T10:12:28.188Z,100520.69
2019-06-20T10:14:59.777Z,100508.80
2019-06-20T10:17:31.409Z,100509.06
2019-06-20T10:20:03.018Z,100520.77
2019-06-20T10:22:35.004Z,100506.75
2019-06-20T10:25:07.553Z,100508.48
2019-06-20T10:27:39.120Z,100501.95
2019-06-20T10:30:14.628Z,100502.00
2019-06-20T10:32:45.625Z,100492.67
2019-06-20T10:35:18.060Z,100528.18
2019-06-20T10:37:50.381Z,100496.86
2019-06-20T10:40:23.826Z,100500.52
2019-06-20T10:42:56.658Z,100553.03
2019-06-20T10:45:29.649Z,100533.75
2019-06-20T10:48:01.187Z,100552.56
2019-06-20T10:50:40.934Z,100538.85
2019-06-20T10:53:13.257Z,100549.32
2019-06-20T10:55:44.979Z,100516.57
2019-06-20T10:58:16.568Z,100546.41
2019-06-20T11:00:48.381Z,100547.76
2019-06-20T11:03:19.901Z,100569.27
2019-06-20T11:05:51.306Z,100579.70
2019-06-20T11:08:22.808Z,100542.97
2019-06-20T11:10:59.324Z,100557.34
2019-06-20T11:13:31.418Z,100551.45
2019-06-20T11:16:02.817Z,100546.33
2019-06-20T11:18:34.148Z,100529.70
2019-06-20T11:21:06.049Z,100529.16
2019-06-20T11:23:39.417Z,100546.08
2019-06-20T11:26:11.191Z,100559.02
2019-06-20T11:28:42.657Z,100566.33
2019-06-20T11:31:14.179Z,100514.83
2019-06-20T11:33:46.882Z,100530.90
2019-06-20T11:36:19.287Z,100528.07
2019-06-20T11:38:51.638Z,100579.06
2019-06-20T11:41:22.984Z,100581.64
2019-06-20T11:43:54.381Z,100544.12
2019-06-20T11:46:25.743Z,100505.96
2019-06-20T11:48:57.142Z,100551.89
2019-06-20T11:51:28.575Z,100496.24
2019-06-20T11:54:00.140Z,100518.66
2019-06-20T11:56:32.390Z,100453.63
2019-06-20T11:59:03.701Z,100450.27
2019-06-20T12:01:35.119Z,100444.86
2019-06-20T12:04:09.372Z,100439.20
2019-06-20T12:06:40.159Z,100440.80
2019-06-20T12:09:13.009Z,100427.41
2019-06-20T12:22:44.941Z,100489.92
2019-06-20T12:24:58.105Z,100467.13
2019-06-20T12:27:40.800Z,100455.38
2019-06-20T12:37:03.477Z,100462.86
2019-06-20T12:39:39.230Z,100449.98
2019-06-20T12:42:11.062Z,100464.63
2019-06-20T12:44:44.079Z,100440.23
2019-06-20T12:47:16.042Z,100431.62
2019-06-20T12:49:48.668Z,100411.27
2019-06-20T12:52:20.124Z,100405.81
2019-06-20T12:54:51.569Z,100431.11
2019-06-20T12:57:23.114Z,100416.20
2019-06-20T13:00:02.579Z,100423.81
2019-06-20T13:02:40.064Z,100419.95
2019-06-20T13:05:12.735Z,100393.53
2019-06-20T13:07:44.459Z,100369.04
2019-06-20T13:10:17.080Z,100388.98
2019-06-20T13:12:51.806Z,100378.44
2019-06-20T13:15:23.287Z,100368.78
2019-06-20T13:17:55.416Z,100359.55
2019-06-20T13:20:28.987Z,100378.47
2019-06-20T13:23:00.454Z,100381.06
2019-06-20T13:25:31.803Z,100371.58
2019-06-20T13:28:03.277Z,100360.62
2019-06-20T13:30:35.599Z,100368.50
2019-06-20T13:33:07.284Z,100369.77
2019-06-20T13:35:41.921Z,100646.20
2019-06-20T13:38:13.520Z,100658.97
2019-06-20T13:40:45.386Z,100591.79
2019-06-20T13:43:17.094Z,100516.09
2019-06-20T13:45:49.897Z,100441.61
2019-06-20T13:48:21.727Z,100407.13
2019-06-20T13:50:53.429Z,100389.66
2019-06-20T13:53:24.853Z,100382.06
2019-06-20T13:55:56.602Z,100373.55
2019-06-20T13:58:28.285Z,100365.45
2019-06-20T14:01:00.192Z,100362.70
2019-06-20T14:03:31.615Z,100561.73
2019-06-20T14:06:03.457Z,100490.79
2019-06-20T14:12:29.491Z,100377.86
2019-06-20T14:15:01.582Z,100353.00
2019-06-20T14:17:33.099Z,100358.27
2019-06-20T14:20:09.197Z,100356.27
2019-06-20T14:22:41.435Z,100364.23
2019-06-20T14:25:17.805Z,100367.74
2019-06-20T14:27:51.553Z,100348.49
2019-06-20T14:30:24.853Z,100559.98
2019-06-20T14:32:56.673Z,100305.67
2019-06-20T14:35:28.392Z,100296.17
2019-06-20T14:38:03.396Z,100278.98
2019-06-20T14:40:36.554Z,100259.29
2019-06-20T14:43:08.662Z,100274.95
2019-06-20T14:45:43.851Z,100267.63
2019-06-20T14:48:20.875Z,100268.92
2019-06-20T14:50:57.801Z,100255.91
2019-06-20T14:53:29.512Z,100220.41
2019-06-20T14:56:05.280Z,100203.30
2019-06-20T14:58:37.473Z,100200.54
2019-06-20T15:01:09.267Z,100202.58
2019-06-20T15:03:40.676Z,100193.92
2019-06-20T15:06:13.822Z,100202.30
2019-06-20T15:08:47.583Z,100194.75
2019-06-20T15:11:19.959Z,100212.04
2019-06-20T15:13:53.231Z,100233.16
2019-06-20T15:16:25.423Z,100238.77
2019-06-20T15:18:58.021Z,100243.93
2019-06-20T15:21:29.628Z,100226.63
2019-06-20T15:24:01.085Z,100261.53
2019-06-20T15:26:34.468Z,100225.43
2019-06-20T15:29:06.327Z,100218.09
2019-06-20T15:32:04.119Z,100212.08
2019-06-20T15:34:38.808Z,100211.05
2019-06-20T15:37:16.090Z,100240.23
2019-06-20T15:39:53.440Z,100247.49
2019-06-20T15:42:29.258Z,100253.39
2019-06-20T15:45:01.168Z,100251.65
2019-06-20T15:47:34.539Z,100246.89
2019-06-20T15:50:12.032Z,100254.36
2019-06-20T15:52:44.030Z,100239.75
2019-06-20T15:55:19.602Z,100240.05
2019-06-20T15:57:54.059Z,100266.02
2019-06-20T16:00:25.543Z,100258.64
2019-06-20T16:03:09.513Z,100283.14
2019-06-20T16:05:30.394Z,100261.16
2019-06-20T16:08:01.911Z,100244.56
2019-06-20T16:10:33.658Z,100260.97
2019-06-20T16:13:05.419Z,100221.11
2019-06-20T16:15:36.918Z,100241.77
2019-06-20T16:18:10.413Z,100237.23
2019-06-20T16:20:41.883Z,100247.48
2019-06-20T16:23:13.482Z,100247.63
2019-06-20T16:25:45.002Z,100251.30
2019-06-20T16:28:18.007Z,100244.89
2019-06-20T16:30:49.512Z,100233.81
2019-06-20T16:33:25.033Z,100231.80
2019-06-20T16:36:06.569Z,100227.93
2019-06-20T16:38:39.809Z,100213.75
2019-06-20T16:41:13.024Z,100232.50
2019-06-20T16:43:46.442Z,100229.05
2019-06-20T16:46:20.020Z,100227.23
2019-06-20T16:48:55.153Z,100220.16
2019-06-20T16:51:27.121Z,100205.50
2019-06-20T16:53:58.566Z,100204.05
2019-06-20T16:56:29.963Z,100200.98
2019-06-20T16:59:01.588Z,100201.30
2019-06-20T17:01:33.125Z,100170.73
2019-06-20T17:04:04.746Z,100213.45
2019-06-20T17:06:36.225Z,100194.75
2019-06-20T17:09:09.255Z,100165.00
2019-06-20T17:11:42.340Z,100170.42
2019-06-20T17:14:14.174Z,100196.00
2019-06-20T17:16:46.026Z,100218.72
2019-06-20T17:19:17.527Z,100214.14
2019-06-20T17:21:50.967Z,100189.72
2019-06-20T17:24:23.793Z,100219.19
2019-06-20T17:26:56.786Z,100219.16
2019-06-20T17:29:28.253Z,100221.41
2019-06-20T17:31:59.738Z,100224.23
2019-06-20T17:34:31.350Z,100229.34
2019-06-20T17:37:02.860Z,100212.11
2019-06-20T17:39:34.165Z,100231.49
2019-06-20T17:42:05.564Z,100253.67
2019-06-20T17:44:37.022Z,100216.74
2019-06-20T17:47:08.378Z,100243.40
2019-06-20T17:49:39.859Z,100261.05
2019-06-20T17:52:14.564Z,100258.20
2019-06-20T17:54:46.179Z,100262.39
2019-06-20T17:57:17.514Z,100245.91
2019-06-20T17:59:49.014Z,100231.16
2019-06-20T18:02:21.776Z,100264.45
2019-06-20T18:04:53.200Z,100284.23
2019-06-20T18:07:24.657Z,100264.58
2019-06-20T18:09:56.028Z,100254.45
2019-06-20T18:12:27.657Z,100230.12
2019-06-20T18:15:01.000Z,100240.30
2019-06-20T18:17:32.651Z,100249.55
2019-06-20T18:20:08.834Z,100219.00
2019-06-20T18:22:40.602Z,100225.86
2019-06-20T18:25:13.425Z,100215.17
2019-06-20T18:27:46.930Z,100218.91
2019-06-20T18:30:19.404Z,100227.80
2019-06-20T18:32:50.931Z,100237.52
2019-06-20T18:35:22.514Z,100230.48
2019-06-20T18:37:54.115Z,100230.47
2019-06-20T18:40:28.507Z,100267.49
2019-06-20T18:43:00.498Z,100273.66
2019-06-20T18:45:32.402Z,100251.08
2019-06-20T18:48:04.678Z,100261.55
2019-06-20T18:50:38.068Z,100270.27
2019-06-20T18:53:11.559Z,100269.88
2019-06-20T18:55:45.658Z,100262.41
2019-06-20T18:58:20.087Z,100264.48
2019-06-20T19:00:51.933Z,100271.14
2019-06-20T19:03:26.008Z,100268.26
2019-06-20T19:06:01.835Z,100268.19
2019-06-20T19:08:33.312Z,100252.44
2019-06-20T19:11:04.747Z,100268.35
2019-06-20T19:13:37.558Z,100274.08
2019-06-20T19:16:09.057Z,100277.73
2019-06-20T19:18:41.567Z,100277.37
2019-06-20T19:21:12.907Z,100271.07
2019-06-20T19:23:45.311Z,100277.42
2019-06-20T19:26:16.734Z,100280.50
2019-06-20T19:28:48.032Z,100278.91
2019-06-20T19:31:21.960Z,100279.53
2019-06-20T19:33:53.361Z,100295.95
2019-06-20T19:36:25.917Z,100290.13
2019-06-20T19:38:57.351Z,100293.40
2019-06-20T19:41:28.907Z,100291.14
2019-06-20T19:44:00.238Z,100295.55
2019-06-20T19:46:33.251Z,100305.66
2019-06-20T19:49:04.672Z,100303.20
2019-06-20T19:51:36.138Z,100301.10
2019-06-20T19:54:07.574Z,100311.52
2019-06-20T19:56:39.188Z,100314.03
2019-06-20T19:59:10.885Z,100312.63
2019-06-20T20:01:44.072Z,100331.23
2019-06-20T20:04:15.418Z,100317.11
2019-06-20T20:06:46.741Z,100333.30
2019-06-20T20:09:18.200Z,100334.03
2019-06-20T20:11:49.519Z,100335.58
2019-06-20T20:14:21.045Z,100337.17
2019-06-20T20:16:52.481Z,100331.95
2019-06-20T20:19:24.054Z,100337.69
2019-06-20T20:21:55.458Z,100347.16
2019-06-20T20:24:26.793Z,100343.19
2019-06-20T20:26:58.063Z,100352.70
2019-06-20T20:29:31.973Z,100346.55
2019-06-20T20:32:03.521Z,100357.72
2019-06-20T20:34:34.885Z,100348.23
2019-06-20T20:37:06.638Z,100344.46
2019-06-20T20:39:37.986Z,100356.09
2019-06-20T20:42:09.349Z,100354.69
2019-06-20T20:44:40.872Z,100353.25
2019-06-20T20:47:12.481Z,100356.35
2019-06-20T20:49:43.876Z,100363.74
2019-06-20T20:52:15.434Z,100350.74
2019-06-20T20:54:47.335Z,100348.42
2019-06-20T20:57:19.065Z,100346.66
2019-06-20T20:59:50.812Z,100353.56
2019-06-20T21:02:22.440Z,100341.19
2019-06-20T21:04:54.371Z,100342.84
2019-06-20T21:07:25.950Z,100337.61
2019-06-20T21:09:59.115Z,100328.53
2019-06-20T21:12:30.686Z,100327.89
2019-06-20T21:15:03.370Z,100332.09
2019-06-20T21:17:34.947Z,100338.45
2019-06-20T21:20:11.054Z,100339.12
2019-06-20T21:22:42.490Z,100335.17
2019-06-20T21:25:14.292Z,100355.28
2019-06-20T21:27:46.116Z,100348.18
2019-06-20T21:30:17.864Z,100364.56
2019-06-20T21:32:49.277Z,100378.36
2019-06-20T21:35:21.204Z,100368.87
2019-06-20T21:37:52.662Z,100349.92
2019-06-20T21:40:24.107Z,100345.10
2019-06-20T21:42:55.697Z,100375.45
2019-06-20T21:45:27.217Z,100394.57
2019-06-20T21:47:58.694Z,100391.80
2019-06-20T21:50:30.041Z,100395.41
2019-06-20T22:08:23.496Z,100356.53
2019-06-20T22:27:34.410Z,100378.95
2019-06-20T22:30:36.393Z,100375.61
2019-06-20T22:36:40.559Z,100392.83
2019-06-20T22:46:23.868Z,100407.63
2019-06-20T22:49:44.063Z,100411.48
2019-06-20T22:52:19.187Z,100408.51
2019-06-20T22:55:25.888Z,100386.11
2019-06-20T22:58:48.040Z,100408.61
2019-06-20T23:01:38.364Z,100401.95
2019-06-20T23:04:32.566Z,100412.84
2019-06-20T23:10:12.089Z,100414.29
2019-06-20T23:18:18.216Z,100425.03
2019-06-20T23:19:40.820Z,100420.45
2019-06-20T23:22:23.688Z,100422.50
2019-06-20T23:25:16.472Z,100427.22
2019-06-20T23:28:22.786Z,100426.30
2019-06-20T23:37:41.615Z,100411.33
2019-06-20T23:42:33.226Z,100430.27
2019-06-20T23:43:41.638Z,100437.02
2019-06-20T23:46:46.526Z,100417.42
2019-06-20T23:56:03.427Z,100428.09
2019-06-20T23:59:13.186Z,100426.86
